createdAt,value
2017-12-30T00:00:45.108Z,95.90
2017-12-30T00:01:50.736Z,96.20
2017-12-30T00:02:56.639Z,95.70
2017-12-30T00:04:01.530Z,95.60
2017-12-30T00:05:06.554Z,95.40
2017-12-30T00:06:11.435Z,95.30
2017-12-30T00:07:16.261Z,95.20
2017-12-30T00:08:21.956Z,95.20
2017-12-30T00:09:27.634Z,95.10
2017-12-30T00:10:32.607Z,95.40
2017-12-30T00:11:37.542Z,95.60
2017-12-30T00:12:42.556Z,95.70
2017-12-30T00:13:47.609Z,95.60
2017-12-30T00:14:53.338Z,95.50
2017-12-30T00:15:58.318Z,95.70
2017-12-30T00:17:03.329Z,95.70
2017-12-30T00:18:08.970Z,95.70
2017-12-30T00:19:14.614Z,95.40
2017-12-30T00:20:20.238Z,95.30
2017-12-30T00:21:25.878Z,95.20
2017-12-30T00:22:32.281Z,95.30
2017-12-30T00:23:37.055Z,95.30
2017-12-30T00:24:42.948Z,95.10
2017-12-30T00:25:47.728Z,95.10
2017-12-30T00:26:52.525Z,95.20
2017-12-30T00:27:58.037Z,95.10
2017-12-30T00:29:03.630Z,95.10
2017-12-30T00:30:08.842Z,95.20
2017-12-30T00:31:13.678Z,95.20
2017-12-30T00:32:18.425Z,95.00
2017-12-30T00:33:23.501Z,95.20
2017-12-30T00:34:29.432Z,95.20
2017-12-30T00:35:35.680Z,95.10
2017-12-30T00:36:40.793Z,95.10
2017-12-30T00:37:45.491Z,95.20
2017-12-30T00:38:50.326Z,95.30
2017-12-30T00:39:56.306Z,95.20
2017-12-30T00:41:01.924Z,95.00
2017-12-30T00:42:07.775Z,95.30
2017-12-30T00:43:13.381Z,95.00
2017-12-30T00:44:19.398Z,95.20
2017-12-30T00:45:24.322Z,95.20
2017-12-30T00:46:30.802Z,95.10
2017-12-30T00:47:35.682Z,95.10
2017-12-30T00:48:43.029Z,95.00
2017-12-30T00:49:48.741Z,94.90
2017-12-30T00:50:54.819Z,94.80
2017-12-30T00:52:00.145Z,94.70
2017-12-30T00:53:06.209Z,94.90
2017-12-30T00:54:11.237Z,95.00
2017-12-30T00:55:16.265Z,95.10
2017-12-30T00:56:21.688Z,94.90
2017-12-30T00:57:28.398Z,95.10
2017-12-30T00:58:33.626Z,95.10
2017-12-30T00:59:38.331Z,95.20
2017-12-30T01:00:43.344Z,95.30
2017-12-30T01:01:48.090Z,95.20
2017-12-30T01:02:52.821Z,95.00
2017-12-30T01:03:57.682Z,95.00
2017-12-30T01:05:03.180Z,95.20
2017-12-30T01:06:08.049Z,95.20
2017-12-30T01:07:14.337Z,95.30
2017-12-30T01:08:19.222Z,95.30
2017-12-30T01:09:24.939Z,95.20
2017-12-30T01:10:29.899Z,95.20
2017-12-30T01:11:34.640Z,95.00
2017-12-30T01:12:39.398Z,94.90
2017-12-30T01:13:44.427Z,95.10
2017-12-30T01:14:49.887Z,94.80
2017-12-30T01:15:54.641Z,94.80
2017-12-30T01:16:59.610Z,95.00
2017-12-30T01:18:05.117Z,95.10
2017-12-30T01:19:10.250Z,95.00
2017-12-30T01:20:16.135Z,95.00
2017-12-30T01:21:21.028Z,95.00
2017-12-30T01:22:26.510Z,94.90
2017-12-30T01:23:31.263Z,94.90
2017-12-30T01:24:35.966Z,95.00
2017-12-30T01:25:40.666Z,95.00
2017-12-30T01:26:45.649Z,95.00
2017-12-30T01:27:51.119Z,95.20
2017-12-30T01:28:56.750Z,95.20
2017-12-30T01:30:01.451Z,95.00
2017-12-30T01:31:06.276Z,95.10
2017-12-30T01:32:12.000Z,94.90
2017-12-30T01:33:17.099Z,94.40
2017-12-30T01:34:21.978Z,94.60
2017-12-30T01:35:26.751Z,94.50
2017-12-30T01:36:32.295Z,94.60
2017-12-30T01:37:37.797Z,94.40
2017-12-30T01:38:42.609Z,94.40
2017-12-30T01:39:47.638Z,94.50
2017-12-30T01:40:52.367Z,94.50
2017-12-30T01:41:57.863Z,94.50
2017-12-30T01:43:02.595Z,94.50
2017-12-30T01:44:07.270Z,94.20
2017-12-30T01:45:12.119Z,94.20
2017-12-30T01:46:17.191Z,94.20
2017-12-30T01:47:22.717Z,94.30
2017-12-30T01:48:28.072Z,94.30
2017-12-30T01:49:32.992Z,94.30
2017-12-30T01:50:37.738Z,94.20
2017-12-30T01:51:43.325Z,94.40
2017-12-30T01:52:48.863Z,94.40
2017-12-30T01:53:53.930Z,94.40
2017-12-30T01:55:00.670Z,94.50
2017-12-30T01:56:07.504Z,95.60
2017-12-30T01:57:12.925Z,95.40
2017-12-30T01:58:18.387Z,95.80
2017-12-30T01:59:25.390Z,96.00
2017-12-30T02:00:31.012Z,96.00
2017-12-30T02:01:36.326Z,96.00
2017-12-30T02:02:41.965Z,96.10
2017-12-30T02:03:47.031Z,96.10
2017-12-30T02:04:51.988Z,95.90
2017-12-30T02:05:57.198Z,95.00
2017-12-30T02:07:02.194Z,94.30
2017-12-30T02:08:07.276Z,94.60
2017-12-30T02:09:12.048Z,94.20
2017-12-30T02:10:16.854Z,94.10
2017-12-30T02:11:22.793Z,94.10
2017-12-30T02:12:28.485Z,94.10
2017-12-30T02:13:33.803Z,93.70
2017-12-30T02:14:41.407Z,94.30
2017-12-30T02:15:46.536Z,93.60
2017-12-30T02:16:51.278Z,93.40
2017-12-30T02:17:56.352Z,93.60
2017-12-30T02:19:01.993Z,93.20
2017-12-30T02:20:07.010Z,93.40
2017-12-30T02:21:12.052Z,93.60
2017-12-30T02:22:16.817Z,93.30
2017-12-30T02:23:22.505Z,93.30
2017-12-30T02:24:28.421Z,93.30
2017-12-30T02:25:34.367Z,93.50
2017-12-30T02:26:39.195Z,93.30
2017-12-30T02:28:54.209Z,93.30
2017-12-30T02:29:59.726Z,93.00
2017-12-30T02:31:17.909Z,92.90
2017-12-30T02:32:23.231Z,92.90
2017-12-30T02:33:28.430Z,93.00
2017-12-30T02:34:33.564Z,92.70
2017-12-30T02:35:38.766Z,92.60
2017-12-30T02:36:43.889Z,92.70
2017-12-30T02:37:49.787Z,92.40
2017-12-30T02:38:55.312Z,92.50
2017-12-30T02:40:01.412Z,92.60
2017-12-30T02:41:06.555Z,92.60
2017-12-30T02:42:11.802Z,92.30
2017-12-30T02:43:16.578Z,92.20
2017-12-30T02:44:22.148Z,92.10
2017-12-30T02:45:30.958Z,92.20
2017-12-30T02:46:36.201Z,92.20
2017-12-30T02:47:40.961Z,92.30
2017-12-30T02:48:58.832Z,92.30
2017-12-30T02:50:03.955Z,92.30
2017-12-30T02:51:08.905Z,92.60
2017-12-30T02:52:15.017Z,92.80
2017-12-30T02:53:20.115Z,92.80
2017-12-30T02:54:25.428Z,92.60
2017-12-30T02:55:30.184Z,92.70
2017-12-30T02:56:35.830Z,92.60
2017-12-30T02:57:40.631Z,92.40
2017-12-30T02:58:47.564Z,92.90
2017-12-30T02:59:53.577Z,92.90
2017-12-30T03:00:58.715Z,93.00
2017-12-30T03:02:03.837Z,93.00
2017-12-30T03:03:08.955Z,93.00
2017-12-30T03:04:14.846Z,92.90
2017-12-30T03:05:19.822Z,92.90
2017-12-30T03:06:24.506Z,93.00
2017-12-30T03:07:29.274Z,93.10
2017-12-30T03:08:34.037Z,92.80
2017-12-30T03:09:38.846Z,92.90
2017-12-30T03:10:44.582Z,93.10
2017-12-30T03:11:50.079Z,93.10
2017-12-30T03:12:55.064Z,93.20
2017-12-30T03:13:59.882Z,92.80
2017-12-30T03:15:05.164Z,92.90
2017-12-30T03:16:10.673Z,93.40
2017-12-30T03:17:15.713Z,93.50
2017-12-30T03:18:21.446Z,93.50
2017-12-30T03:19:26.207Z,92.80
2017-12-30T03:20:31.017Z,92.80
2017-12-30T03:21:36.993Z,92.80
2017-12-30T03:22:42.165Z,92.80
2017-12-30T03:23:47.450Z,93.00
2017-12-30T03:24:52.509Z,93.00
2017-12-30T03:25:57.417Z,93.00
2017-12-30T03:27:03.742Z,92.80
2017-12-30T03:28:08.556Z,92.90
2017-12-30T03:29:13.281Z,92.80
2017-12-30T03:30:18.974Z,92.80
2017-12-30T03:31:23.960Z,92.80
2017-12-30T03:32:28.747Z,93.00
2017-12-30T03:33:33.506Z,92.90
2017-12-30T03:34:38.238Z,93.10
2017-12-30T03:35:44.693Z,93.00
2017-12-30T03:36:49.400Z,93.40
2017-12-30T03:37:54.378Z,93.20
2017-12-30T03:38:59.075Z,93.30
2017-12-30T03:40:04.798Z,93.60
2017-12-30T03:41:09.566Z,93.60
2017-12-30T03:42:14.294Z,93.50
2017-12-30T03:43:19.946Z,93.60
2017-12-30T03:44:25.192Z,93.60
2017-12-30T03:45:30.553Z,93.70
2017-12-30T03:46:36.100Z,94.00
2017-12-30T03:47:40.810Z,93.70
2017-12-30T03:48:46.290Z,93.50
2017-12-30T03:49:51.011Z,93.50
2017-12-30T03:50:56.013Z,93.20
2017-12-30T03:52:00.736Z,93.20
2017-12-30T03:53:05.473Z,93.20
2017-12-30T03:54:10.213Z,93.00
2017-12-30T03:55:15.603Z,93.10
2017-12-30T03:56:20.320Z,93.10
2017-12-30T03:57:25.384Z,93.10
2017-12-30T03:58:30.404Z,93.10
2017-12-30T03:59:35.171Z,93.10
2017-12-30T04:00:39.895Z,93.20
2017-12-30T04:01:45.072Z,93.10
2017-12-30T04:02:49.805Z,93.30
2017-12-30T04:03:56.255Z,93.40
2017-12-30T04:05:01.543Z,93.30
2017-12-30T04:06:06.374Z,93.10
2017-12-30T04:07:11.107Z,93.30
2017-12-30T04:08:15.809Z,93.20
2017-12-30T04:09:20.646Z,93.20
2017-12-30T04:10:25.646Z,93.40
2017-12-30T04:11:30.390Z,93.60
2017-12-30T04:12:36.113Z,93.60
2017-12-30T04:13:41.977Z,93.70
2017-12-30T04:14:47.692Z,93.40
2017-12-30T04:15:52.450Z,93.40
2017-12-30T04:16:58.562Z,93.70
2017-12-30T04:18:05.660Z,93.60
2017-12-30T04:19:11.605Z,93.80
2017-12-30T04:20:17.152Z,93.80
2017-12-30T04:21:22.758Z,93.80
2017-12-30T04:22:27.480Z,93.80
2017-12-30T04:23:32.493Z,93.70
2017-12-30T04:24:37.681Z,93.80
2017-12-30T04:25:42.494Z,93.70
2017-12-30T04:26:47.278Z,93.60
2017-12-30T04:27:53.268Z,93.70
2017-12-30T04:28:58.390Z,93.70
2017-12-30T04:30:03.321Z,93.70
2017-12-30T04:31:08.026Z,93.70
2017-12-30T04:32:12.978Z,93.70
2017-12-30T04:33:17.725Z,93.60
2017-12-30T04:34:23.666Z,93.40
2017-12-30T04:35:29.345Z,93.30
2017-12-30T04:36:34.564Z,93.30
2017-12-30T04:37:39.436Z,93.10
2017-12-30T04:38:44.703Z,93.10
2017-12-30T04:39:50.222Z,93.00
2017-12-30T04:40:54.981Z,93.00
2017-12-30T04:41:59.721Z,93.00
2017-12-30T04:43:04.833Z,92.70
2017-12-30T04:44:09.723Z,93.00
2017-12-30T04:45:14.512Z,93.20
2017-12-30T04:46:19.389Z,93.20
2017-12-30T04:47:24.163Z,93.00
2017-12-30T04:48:29.365Z,92.90
2017-12-30T04:49:34.342Z,92.70
2017-12-30T04:50:39.134Z,92.80
2017-12-30T04:51:44.617Z,93.00
2017-12-30T04:52:49.801Z,93.30
2017-12-30T04:53:55.739Z,92.80
2017-12-30T04:55:00.609Z,92.80
2017-12-30T04:56:05.614Z,92.90
2017-12-30T04:57:10.363Z,93.20
2017-12-30T04:58:15.092Z,93.00
2017-12-30T04:59:19.889Z,93.00
2017-12-30T05:00:24.606Z,93.00
2017-12-30T05:01:29.460Z,92.60
2017-12-30T05:02:34.652Z,92.60
2017-12-30T05:03:39.856Z,92.60
2017-12-30T05:04:44.679Z,92.60
2017-12-30T05:05:49.831Z,92.60
2017-12-30T05:06:54.582Z,92.60
2017-12-30T05:07:59.338Z,92.70
2017-12-30T05:09:04.593Z,92.60
2017-12-30T05:10:09.333Z,92.70
2017-12-30T05:11:14.029Z,92.70
2017-12-30T05:12:18.874Z,92.70
2017-12-30T05:13:24.164Z,92.90
2017-12-30T05:14:30.175Z,92.90
2017-12-30T05:15:35.975Z,92.90
2017-12-30T05:16:40.749Z,92.90
2017-12-30T05:17:46.274Z,92.80
2017-12-30T05:18:51.760Z,92.90
2017-12-30T05:19:56.505Z,92.90
2017-12-30T05:21:01.988Z,93.00
2017-12-30T05:22:07.002Z,93.00
2017-12-30T05:23:12.622Z,93.00
2017-12-30T05:24:18.449Z,93.20
2017-12-30T05:25:23.167Z,93.30
2017-12-30T05:26:28.708Z,93.70
2017-12-30T05:27:33.928Z,93.70
2017-12-30T05:28:39.030Z,93.90
2017-12-30T05:29:43.807Z,93.90
2017-12-30T05:30:48.557Z,94.00
2017-12-30T05:31:53.250Z,93.80
2017-12-30T05:32:57.965Z,94.10
2017-12-30T05:34:02.925Z,93.80
2017-12-30T05:35:08.165Z,93.70
2017-12-30T05:36:13.066Z,94.00
2017-12-30T05:37:18.861Z,93.80
2017-12-30T05:38:24.791Z,93.70
2017-12-30T05:39:30.276Z,93.90
2017-12-30T05:40:35.513Z,93.80
2017-12-30T05:41:40.536Z,93.90
2017-12-30T05:42:45.255Z,94.00
2017-12-30T05:43:50.018Z,94.00
2017-12-30T05:44:55.487Z,94.00
2017-12-30T05:46:00.248Z,94.00
2017-12-30T05:47:04.953Z,94.20
2017-12-30T05:48:09.965Z,94.40
2017-12-30T05:49:15.185Z,94.60
2017-12-30T05:50:19.917Z,94.80
2017-12-30T05:51:24.816Z,94.60
2017-12-30T05:52:29.598Z,94.60
2017-12-30T05:53:35.213Z,94.80
2017-12-30T05:54:40.230Z,94.80
2017-12-30T05:55:44.909Z,94.70
2017-12-30T05:56:49.695Z,94.60
2017-12-30T05:57:55.191Z,94.80
2017-12-30T05:58:59.966Z,94.80
2017-12-30T06:00:05.126Z,94.80
2017-12-30T06:01:10.756Z,94.90
2017-12-30T06:02:15.813Z,95.10
2017-12-30T06:03:20.566Z,95.30
2017-12-30T06:04:25.442Z,95.30
2017-12-30T06:05:30.173Z,95.40
2017-12-30T06:06:34.879Z,95.20
2017-12-30T06:07:39.900Z,95.10
2017-12-30T06:08:44.594Z,95.40
2017-12-30T06:09:49.354Z,95.40
2017-12-30T06:10:55.305Z,95.60
2017-12-30T06:12:01.275Z,95.60
2017-12-30T06:13:06.044Z,95.60
2017-12-30T06:14:11.407Z,95.60
2017-12-30T06:15:16.931Z,95.80
2017-12-30T06:16:22.673Z,96.20
2017-12-30T06:17:27.547Z,96.20
2017-12-30T06:18:32.387Z,96.40
2017-12-30T06:19:37.133Z,96.50
2017-12-30T06:20:42.943Z,96.40
2017-12-30T06:21:47.761Z,96.40
2017-12-30T06:22:53.025Z,96.60
2017-12-30T06:23:58.610Z,96.50
2017-12-30T06:25:03.507Z,96.40
2017-12-30T06:26:08.401Z,96.50
2017-12-30T06:27:14.294Z,96.20
2017-12-30T06:28:19.058Z,96.20
2017-12-30T06:29:24.506Z,96.30
2017-12-30T06:30:29.981Z,96.30
2017-12-30T06:31:34.742Z,96.30
2017-12-30T06:32:40.228Z,96.40
2017-12-30T06:33:45.212Z,96.40
2017-12-30T06:34:50.693Z,96.60
2017-12-30T06:35:55.378Z,96.60
2017-12-30T06:37:00.098Z,96.60
2017-12-30T06:38:04.888Z,96.50
2017-12-30T06:39:10.329Z,96.80
2017-12-30T06:40:16.088Z,97.00
2017-12-30T06:41:20.790Z,96.90
2017-12-30T06:42:26.270Z,96.80
2017-12-30T06:43:30.969Z,96.80
2017-12-30T06:44:35.733Z,96.70
2017-12-30T06:45:41.375Z,96.70
2017-12-30T06:46:46.342Z,96.70
2017-12-30T06:47:51.150Z,96.60
2017-12-30T06:48:55.973Z,96.60
2017-12-30T06:50:00.678Z,96.60
2017-12-30T06:51:06.126Z,96.50
2017-12-30T06:52:10.883Z,96.50
2017-12-30T06:53:16.672Z,96.90
2017-12-30T06:54:22.206Z,96.90
2017-12-30T06:55:27.672Z,96.90
2017-12-30T06:56:32.474Z,96.90
2017-12-30T06:57:37.231Z,97.20
2017-12-30T06:58:41.973Z,97.20
2017-12-30T06:59:47.791Z,97.30
2017-12-30T07:00:53.270Z,97.30
2017-12-30T07:01:58.763Z,97.30
2017-12-30T07:03:03.439Z,97.30
2017-12-30T07:04:08.150Z,97.30
2017-12-30T07:05:12.840Z,97.50
2017-12-30T07:06:18.663Z,97.80
2017-12-30T07:07:24.153Z,97.70
2017-12-30T07:08:28.841Z,97.70
2017-12-30T07:09:33.610Z,97.80
2017-12-30T07:10:38.321Z,97.90
2017-12-30T07:11:43.031Z,97.80
2017-12-30T07:12:48.043Z,97.80
2017-12-30T07:13:52.783Z,97.90
2017-12-30T07:14:57.469Z,97.80
2017-12-30T07:16:02.194Z,97.80
2017-12-30T07:17:06.961Z,97.90
2017-12-30T07:18:12.434Z,98.00
2017-12-30T07:19:17.478Z,97.90
2017-12-30T07:20:22.230Z,97.90
2017-12-30T07:21:26.985Z,97.90
2017-12-30T07:22:31.700Z,97.80
2017-12-30T07:23:37.155Z,97.90
2017-12-30T07:24:41.866Z,97.80
2017-12-30T07:25:46.877Z,97.70
2017-12-30T07:26:51.564Z,97.80
2017-12-30T07:27:56.250Z,97.90
2017-12-30T07:29:00.957Z,98.10
2017-12-30T07:30:05.717Z,98.10
2017-12-30T07:31:10.446Z,98.20
2017-12-30T07:32:16.250Z,98.40
2017-12-30T07:33:20.954Z,98.40
2017-12-30T07:34:25.700Z,98.40
2017-12-30T07:35:30.390Z,98.40
2017-12-30T07:36:35.102Z,98.40
2017-12-30T07:37:39.912Z,98.40
2017-12-30T07:38:44.921Z,98.30
2017-12-30T07:39:49.638Z,98.40
2017-12-30T07:40:54.441Z,98.30
2017-12-30T07:41:59.389Z,98.30
2017-12-30T07:43:04.257Z,98.40
2017-12-30T07:44:10.109Z,98.50
2017-12-30T07:45:15.962Z,98.50
2017-12-30T07:46:21.780Z,98.40
2017-12-30T07:47:27.433Z,98.40
2017-12-30T07:48:33.026Z,98.50
2017-12-30T07:49:37.759Z,98.40
2017-12-30T07:50:42.682Z,98.40
2017-12-30T07:51:47.389Z,98.40
2017-12-30T07:52:53.327Z,98.40
2017-12-30T07:53:58.043Z,98.60
2017-12-30T07:55:02.760Z,98.60
2017-12-30T07:56:07.490Z,98.60
2017-12-30T07:57:13.705Z,98.70
2017-12-30T07:58:18.479Z,98.80
2017-12-30T07:59:23.158Z,98.80
2017-12-30T08:00:27.865Z,98.60
2017-12-30T08:01:35.685Z,98.80
2017-12-30T08:02:40.411Z,98.60
2017-12-30T08:03:45.413Z,98.60
2017-12-30T08:04:50.344Z,98.80
2017-12-30T08:05:55.033Z,98.80
2017-12-30T08:06:59.779Z,98.80
2017-12-30T08:08:04.519Z,98.80
2017-12-30T08:09:09.974Z,98.90
2017-12-30T08:10:15.046Z,98.90
2017-12-30T08:11:19.909Z,99.10
2017-12-30T08:12:25.797Z,99.20
2017-12-30T08:13:30.518Z,99.10
2017-12-30T08:14:35.206Z,99.10
2017-12-30T08:15:39.925Z,99.20
2017-12-30T08:16:44.901Z,99.20
2017-12-30T08:17:49.622Z,99.30
2017-12-30T08:18:54.312Z,99.20
2017-12-30T08:19:59.021Z,99.10
2017-12-30T08:21:03.755Z,99.20
2017-12-30T08:22:08.454Z,99.30
2017-12-30T08:23:13.566Z,99.10
2017-12-30T08:24:18.366Z,99.30
2017-12-30T08:25:23.067Z,99.50
2017-12-30T08:26:28.536Z,99.40
2017-12-30T08:27:33.243Z,99.40
2017-12-30T08:28:37.981Z,99.30
2017-12-30T08:29:43.087Z,99.30
2017-12-30T08:30:47.802Z,99.30
2017-12-30T08:31:52.531Z,99.20
2017-12-30T08:32:57.211Z,99.10
2017-12-30T08:34:02.755Z,99.60
2017-12-30T08:35:07.462Z,99.50
2017-12-30T08:36:12.525Z,99.70
2017-12-30T08:37:17.225Z,99.70
2017-12-30T08:38:21.963Z,99.60
2017-12-30T08:39:26.747Z,99.40
2017-12-30T08:40:31.498Z,99.30
2017-12-30T08:41:36.267Z,99.40
2017-12-30T08:42:42.060Z,99.50
2017-12-30T08:43:46.787Z,99.50
2017-12-30T08:44:51.496Z,99.50
2017-12-30T08:45:56.195Z,99.50
2017-12-30T08:47:00.933Z,99.70
2017-12-30T08:48:05.620Z,99.60
2017-12-30T08:49:10.820Z,99.50
2017-12-30T08:50:16.290Z,99.70
2017-12-30T08:51:20.996Z,99.70
2017-12-30T08:52:25.766Z,99.90
2017-12-30T08:53:30.454Z,99.60
2017-12-30T08:54:35.163Z,99.60
2017-12-30T08:55:40.397Z,99.80
2017-12-30T08:56:45.217Z,99.60
2017-12-30T08:57:49.970Z,99.60
2017-12-30T08:58:55.220Z,99.60
2017-12-30T09:00:00.737Z,99.70
2017-12-30T09:01:05.522Z,99.70
2017-12-30T09:02:10.682Z,99.80
2017-12-30T09:03:15.389Z,99.60
2017-12-30T09:04:20.107Z,99.60
2017-12-30T09:05:24.797Z,99.50
2017-12-30T09:06:29.500Z,99.70
2017-12-30T09:07:34.392Z,99.80
2017-12-30T09:08:40.245Z,99.80
2017-12-30T09:09:45.025Z,99.80
2017-12-30T09:10:49.792Z,99.80
2017-12-30T09:11:55.606Z,99.90
2017-12-30T09:13:01.107Z,99.90
2017-12-30T09:14:05.805Z,99.90
2017-12-30T09:15:10.934Z,99.90
2017-12-30T09:16:15.638Z,99.90
2017-12-30T09:17:20.378Z,99.90
2017-12-30T09:18:25.109Z,99.90
2017-12-30T09:19:30.653Z,99.90
2017-12-30T09:20:35.365Z,99.90
2017-12-30T09:21:40.488Z,99.90
2017-12-30T09:22:45.193Z,99.80
2017-12-30T09:23:49.955Z,99.60
2017-12-30T09:24:55.530Z,99.60
2017-12-30T09:26:00.343Z,99.60
2017-12-30T09:27:05.053Z,99.60
2017-12-30T09:28:10.286Z,99.40
2017-12-30T09:29:15.027Z,99.30
2017-12-30T09:30:19.788Z,99.40
2017-12-30T09:31:25.217Z,99.30
2017-12-30T09:32:30.777Z,99.40
2017-12-30T09:33:35.478Z,99.40
2017-12-30T09:34:40.735Z,99.30
2017-12-30T09:35:45.441Z,99.30
2017-12-30T09:36:51.004Z,99.30
2017-12-30T09:37:55.826Z,99.30
2017-12-30T09:39:00.502Z,99.40
2017-12-30T09:40:05.233Z,99.10
2017-12-30T09:41:10.341Z,99.20
2017-12-30T09:42:15.036Z,99.30
2017-12-30T09:43:20.505Z,99.40
2017-12-30T09:44:25.181Z,99.40
2017-12-30T09:45:30.662Z,99.10
2017-12-30T09:46:35.859Z,99.10
2017-12-30T09:47:41.682Z,99.30
2017-12-30T09:48:47.213Z,99.40
2017-12-30T09:49:51.969Z,99.40
2017-12-30T09:50:56.695Z,99.50
2017-12-30T09:52:01.447Z,99.50
2017-12-30T09:53:06.358Z,99.60
2017-12-30T09:54:11.437Z,99.50
2017-12-30T09:55:16.901Z,99.40
2017-12-30T09:56:21.642Z,99.40
2017-12-30T09:57:26.360Z,99.30
2017-12-30T09:58:31.049Z,99.10
2017-12-30T09:59:35.799Z,99.10
2017-12-30T10:00:40.522Z,99.20
2017-12-30T10:01:45.278Z,99.30
2017-12-30T10:02:50.844Z,99.40
2017-12-30T10:03:55.671Z,99.40
2017-12-30T10:05:00.412Z,99.40
2017-12-30T10:06:05.580Z,99.40
2017-12-30T10:07:10.316Z,99.20
2017-12-30T10:08:15.016Z,99.20
2017-12-30T10:09:20.584Z,99.50
2017-12-30T10:10:25.418Z,99.50
2017-12-30T10:11:30.191Z,99.50
2017-12-30T10:12:35.318Z,99.60
2017-12-30T10:13:40.046Z,99.50
2017-12-30T10:14:44.776Z,99.50
2017-12-30T10:15:49.484Z,99.50
2017-12-30T10:16:54.249Z,99.40
2017-12-30T10:17:58.963Z,99.50
2017-12-30T10:19:03.990Z,99.40
2017-12-30T10:20:09.474Z,99.40
2017-12-30T10:21:14.209Z,99.40
2017-12-30T10:22:18.916Z,99.40
2017-12-30T10:23:23.688Z,99.40
2017-12-30T10:24:29.217Z,99.20
2017-12-30T10:25:35.165Z,99.20
2017-12-30T10:26:40.683Z,99.10
2017-12-30T10:27:45.483Z,99.00
2017-12-30T10:28:50.182Z,99.10
2017-12-30T10:29:54.905Z,99.10
2017-12-30T10:30:59.649Z,99.10
2017-12-30T10:32:04.713Z,99.10
2017-12-30T10:33:09.474Z,99.00
2017-12-30T10:34:14.205Z,99.00
2017-12-30T10:35:18.985Z,99.10
2017-12-30T10:36:23.706Z,99.10
2017-12-30T10:37:28.486Z,99.10
2017-12-30T10:38:34.557Z,99.20
2017-12-30T10:39:39.277Z,99.10
2017-12-30T10:40:44.064Z,99.20
2017-12-30T10:41:49.533Z,99.10
2017-12-30T10:42:54.233Z,99.10
2017-12-30T10:43:58.981Z,99.00
2017-12-30T10:45:04.093Z,98.90
2017-12-30T10:46:08.820Z,98.90
2017-12-30T10:47:13.621Z,99.00
2017-12-30T10:48:18.449Z,99.00
2017-12-30T10:49:23.223Z,98.90
2017-12-30T10:50:28.702Z,98.90
2017-12-30T10:51:33.877Z,98.90
2017-12-30T10:52:38.785Z,98.80
2017-12-30T10:53:43.581Z,98.70
2017-12-30T10:54:49.778Z,98.70
2017-12-30T10:55:54.583Z,98.80
2017-12-30T10:56:59.415Z,98.90
2017-12-30T10:58:04.696Z,98.80
2017-12-30T10:59:09.929Z,98.90
2017-12-30T11:00:15.010Z,98.90
2017-12-30T11:01:21.618Z,98.80
2017-12-30T11:02:26.467Z,98.80
2017-12-30T11:03:31.279Z,98.80
2017-12-30T11:04:36.430Z,98.80
2017-12-30T11:05:42.030Z,99.00
2017-12-30T11:06:46.829Z,99.00
2017-12-30T11:07:52.005Z,99.10
2017-12-30T11:08:56.826Z,99.10
2017-12-30T11:10:02.363Z,99.20
2017-12-30T11:11:08.249Z,99.20
2017-12-30T11:12:13.029Z,99.20
2017-12-30T11:13:18.551Z,99.40
2017-12-30T11:14:23.279Z,99.40
2017-12-30T11:15:28.760Z,99.40
2017-12-30T11:16:33.672Z,99.30
2017-12-30T11:17:38.848Z,99.50
2017-12-30T11:18:43.616Z,99.40
2017-12-30T11:19:48.380Z,99.60
2017-12-30T11:20:53.126Z,99.80
2017-12-30T11:21:59.571Z,99.70
2017-12-30T11:23:04.794Z,99.70
2017-12-30T11:24:10.448Z,99.80
2017-12-30T11:25:15.954Z,99.90
2017-12-30T11:26:21.185Z,99.90
2017-12-30T11:27:26.657Z,99.90
2017-12-30T11:28:32.163Z,99.90
2017-12-30T11:29:37.811Z,99.90
2017-12-30T11:30:43.754Z,99.90
2017-12-30T11:31:49.386Z,99.90
2017-12-30T11:32:54.270Z,99.90
2017-12-30T11:33:59.058Z,99.90
2017-12-30T11:35:03.792Z,99.90
2017-12-30T11:36:08.546Z,99.90
2017-12-30T11:37:13.707Z,99.90
2017-12-30T11:38:18.516Z,99.80
2017-12-30T11:39:24.238Z,99.80
2017-12-30T11:40:30.793Z,99.50
2017-12-30T11:41:37.158Z,99.60
2017-12-30T11:42:42.837Z,99.10
2017-12-30T11:43:49.039Z,99.10
2017-12-30T11:44:53.917Z,99.10
2017-12-30T11:45:58.686Z,98.90
2017-12-30T11:47:03.437Z,98.70
2017-12-30T11:48:08.159Z,98.60
2017-12-30T11:49:12.859Z,98.60
2017-12-30T11:50:18.666Z,98.60
2017-12-30T11:51:23.394Z,98.30
2017-12-30T11:52:28.213Z,98.10
2017-12-30T11:53:32.958Z,98.00
2017-12-30T11:54:38.563Z,97.90
2017-12-30T11:55:43.289Z,97.90
2017-12-30T11:56:48.530Z,98.00
2017-12-30T11:57:54.141Z,97.70
2017-12-30T11:58:58.879Z,97.70
2017-12-30T12:00:03.645Z,97.60
2017-12-30T12:01:08.391Z,97.50
2017-12-30T12:02:13.114Z,97.50
2017-12-30T12:03:18.162Z,97.50
2017-12-30T12:04:23.654Z,97.50
2017-12-30T12:05:28.413Z,97.50
2017-12-30T12:06:33.958Z,97.50
2017-12-30T12:07:40.285Z,97.60
2017-12-30T12:08:45.879Z,97.90
2017-12-30T12:09:51.168Z,97.70
2017-12-30T12:10:56.713Z,97.50
2017-12-30T12:12:03.815Z,97.20
2017-12-30T12:13:08.557Z,97.20
2017-12-30T12:14:13.258Z,97.40
2017-12-30T12:15:20.128Z,97.20
2017-12-30T12:16:25.113Z,97.10
2017-12-30T12:17:30.597Z,96.60
2017-12-30T12:18:35.365Z,96.60
2017-12-30T12:19:40.862Z,96.40
2017-12-30T12:20:45.566Z,96.40
2017-12-30T12:21:50.847Z,96.30
2017-12-30T12:22:56.653Z,96.10
2017-12-30T12:24:01.432Z,96.10
2017-12-30T12:25:06.139Z,96.30
2017-12-30T12:26:10.905Z,96.30
2017-12-30T12:27:15.658Z,96.20
2017-12-30T12:28:20.436Z,96.20
2017-12-30T12:29:25.493Z,96.30
2017-12-30T12:30:33.174Z,96.20
2017-12-30T12:31:38.755Z,96.10
2017-12-30T12:32:43.539Z,96.10
2017-12-30T12:33:49.067Z,96.10
2017-12-30T12:34:54.852Z,96.10
2017-12-30T12:36:00.152Z,96.10
2017-12-30T12:37:04.895Z,95.90
2017-12-30T12:38:09.708Z,96.00
2017-12-30T12:39:14.420Z,95.80
2017-12-30T12:40:19.182Z,95.70
2017-12-30T12:41:23.939Z,95.60
2017-12-30T12:42:29.027Z,95.60
2017-12-30T12:43:33.791Z,95.70
2017-12-30T12:44:38.473Z,95.50
2017-12-30T12:45:43.190Z,95.30
2017-12-30T12:46:47.935Z,95.20
2017-12-30T12:47:52.714Z,95.30
2017-12-30T12:48:57.813Z,95.10
2017-12-30T12:50:02.617Z,95.20
2017-12-30T12:51:07.341Z,95.00
2017-12-30T12:52:12.112Z,94.90
2017-12-30T12:53:17.580Z,94.70
2017-12-30T12:54:22.411Z,94.70
2017-12-30T12:55:27.630Z,94.70
2017-12-30T12:56:33.213Z,94.70
2017-12-30T12:57:37.981Z,94.70
2017-12-30T12:58:42.695Z,94.80
2017-12-30T12:59:47.463Z,94.80
2017-12-30T13:00:52.262Z,94.80
2017-12-30T13:01:57.251Z,94.70
2017-12-30T13:03:02.029Z,94.80
2017-12-30T13:04:08.511Z,94.80
2017-12-30T13:05:13.244Z,94.90
2017-12-30T13:06:18.039Z,94.40
2017-12-30T13:07:23.521Z,94.10
2017-12-30T13:08:28.569Z,94.10
2017-12-30T13:09:33.306Z,94.30
2017-12-30T13:10:38.010Z,94.20
2017-12-30T13:11:42.749Z,93.90
2017-12-30T13:12:48.246Z,93.90
2017-12-30T13:13:52.989Z,93.90
2017-12-30T13:14:58.486Z,93.70
2017-12-30T13:16:03.523Z,93.60
2017-12-30T13:17:08.368Z,93.80
2017-12-30T13:18:13.153Z,93.60
2017-12-30T13:19:17.934Z,93.40
2017-12-30T13:20:22.681Z,93.30
2017-12-30T13:21:27.663Z,93.70
2017-12-30T13:22:34.087Z,93.60
2017-12-30T13:23:41.977Z,93.60
2017-12-30T13:24:46.986Z,93.50
2017-12-30T13:25:55.985Z,93.30
2017-12-30T13:27:00.747Z,93.40
2017-12-30T13:28:05.459Z,93.50
2017-12-30T13:29:10.973Z,93.10
2017-12-30T13:30:15.725Z,93.10
2017-12-30T13:31:21.204Z,92.90
2017-12-30T13:32:25.923Z,92.90
2017-12-30T13:33:30.877Z,92.70
2017-12-30T13:34:35.583Z,92.50
2017-12-30T13:35:40.314Z,92.60
2017-12-30T13:36:45.084Z,92.50
2017-12-30T13:37:49.801Z,92.20
2017-12-30T13:38:54.537Z,92.20
2017-12-30T13:39:59.536Z,91.80
2017-12-30T13:41:04.239Z,91.90
2017-12-30T13:42:09.761Z,91.70
2017-12-30T13:43:15.255Z,91.70
2017-12-30T13:44:19.984Z,91.80
2017-12-30T13:45:24.663Z,91.70
